Latest Weather Observations for Swan Hill

IDN60801

Issued at 8:02 am EDT Friday 20 January 2017 (issued every 30 minutes, with the page automatically refreshed every 10 minutes)

About weather observations | Map of weather stations | Latest weather observations for NSW | Other Formats
Station Details ID: 077094 Name: SWAN HILL AERODROME Lat: -35.38 Lon: 143.54 Height: 71.0 m
Data from the previous 72 hours. | See also: Recent months at Swan Hill
Date/Time
EDT
Temp
°C
App
Temp
°C
Dew
Point
°C
Rel
Hum
%
Delta-T
°C
Wind Press
QNH
hPa
Press
MSL
hPa
Rain since
9am
mm
Dir  Spd
km/h
Gust
km/h
Spd
kts
Gust
kts
20/08:00am 20.1 21.3 18.2 89 1.2 NNW 9 13 5 7 996.4 996.1 -
20/07:43am 19.4 20.8 17.7 90 1.1 NW 7 9 4 5 996.4 996.1 -
20/07:30am 19.2 20.7 17.7 91 0.9 N 6 7 3 4 996.4 996.1 -
20/07:00am 18.7 19.9 17.4 92 0.8 NE 7 9 4 5 996.2 995.9 -
20/06:30am 18.2 18.8 16.7 91 0.9 ESE 9 13 5 7 995.9 995.5 -
20/06:29am 18.2 18.8 16.7 91 0.9 SE 9 15 5 8 996.0 995.6 -
20/06:11am 18.2 18.3 16.4 89 1.1 ESE 11 17 6 9 995.9 995.5 -
20/06:00am 18.3 17.2 16.3 88 1.2 S 17 26 9 14 996.7 996.4 -
20/05:39am 19.1 15.7 15.8 81 2.0 SSW 28 46 15 25 997.1 996.8 -
20/05:30am 21.7 17.4 15.5 68 3.7 WSW 32 52 17 28 997.0 996.7 -
20/05:28am 22.8 18.5 15.4 63 4.4 W 32 52 17 28 997.1 996.8 -
20/05:25am 24.0 20.8 16.3 62 4.7 W 28 39 15 21 996.8 996.5 -
20/05:00am 24.8 23.2 14.9 54 6.0 NW 17 20 9 11 995.7 995.3 -
20/04:30am 25.0 24.2 15.0 53 6.0 NW 13 17 7 9 995.0 994.6 -
20/04:00am 24.5 24.5 16.2 60 5.1 W 11 13 6 7 995.5 995.1 -
20/03:30am 24.5 25.7 16.0 59 5.2 NW 4 7 2 4 995.5 995.1 -
20/03:00am 24.0 24.8 16.3 62 4.7 NNW 7 9 4 5 995.7 995.3 -
20/02:30am 25.2 24.7 12.8 46 7.2 WNW 7 13 4 7 996.5 996.2 -
20/02:00am 28.4 25.5 6.5 25 11.7 NW 11 15 6 8 997.0 996.7 -
20/01:30am 28.4 24.2 5.9 24 11.8 NNE 17 22 9 12 996.0 995.6 -
20/01:00am 27.9 - 6.1 25 11.5 - - - - - 996.3 996.0 -
20/12:30am 27.9 24.0 5.5 24 11.6 ENE 15 20 8 11 997.1 - 0.0
20/12:00am 27.3 23.8 5.6 25 11.3 NE 13 15 7 8 998.3 998.0 0.0
 
Date/Time
EDT
Temp
°C
App
Temp
°C
Dew
Point
°C
Rel
Hum
%
Delta-T
°C
Wind Press
QNH
hPa
Press
MSL
hPa
Rain since
9am
mm
Dir  Spd
km/h
Gust
km/h
Spd
kts
Gust
kts
19/11:30pm 27.4 24.1 4.5 23 11.7 NE 11 15 6 8 999.0 998.7 0.0
19/11:00pm 28.3 24.6 4.6 22 12.2 NE 13 17 7 9 999.6 999.3 0.0
19/10:30pm 28.3 24.6 4.6 22 12.2 ENE 13 17 7 9 999.4 999.1 0.0
19/10:00pm 28.9 25.2 4.4 21 12.6 ENE 13 17 7 9 1000.5 1000.2 0.0
19/09:30pm 30.0 26.6 3.9 19 13.4 ENE 11 15 6 8 1001.1 1000.8 0.0
19/09:00pm 30.4 26.5 3.4 18 13.8 ENE 13 17 7 9 1001.6 1001.3 0.0
19/08:30pm 31.1 27.9 3.2 17 14.2 ENE 9 13 5 7 1001.8 1001.5 0.0
19/08:00pm 32.0 28.6 2.1 15 15.1 ESE 9 11 5 6 1002.0 1001.7 0.0
19/07:30pm 32.8 30.0 1.8 14 15.6 SE 6 11 3 6 1002.3 1002.0 0.0
19/07:00pm 33.1 29.6 1.0 13 16.0 S 9 13 5 7 1002.6 1002.3 0.0
19/06:30pm 33.6 30.1 1.4 13 16.2 S 9 19 5 10 1002.9 1002.6 0.0
19/06:00pm 33.8 30.6 0.5 12 16.6 S 7 13 4 7 1003.3 1003.0 0.0
19/05:30pm 33.5 29.8 0.2 12 16.4 SE 9 17 5 9 1004.0 1003.6 0.0
19/05:00pm 32.8 28.3 -0.3 12 16.1 ESE 13 20 7 11 1004.5 1004.1 0.0
19/04:30pm 33.1 29.4 -0.1 12 16.2 SSE 9 17 5 9 1005.3 1004.9 0.0
19/04:00pm 33.0 29.7 -0.2 12 16.2 WSW 7 11 4 6 1005.8 1005.4 0.0
19/03:30pm 32.4 29.0 -0.6 12 15.9 SSW 7 15 4 8 1006.5 1006.1 0.0
19/03:00pm 31.3 27.2 -0.4 13 15.3 E 11 15 6 8 1007.2 1006.8 0.0
19/02:30pm 30.6 26.9 0.1 14 14.7 SSE 9 20 5 11 1007.5 1007.1 0.0
19/02:00pm 30.2 26.6 0.7 15 14.3 SE 9 15 5 8 1008.3 1007.9 0.0
19/01:30pm 28.8 25.3 1.3 17 13.4 S 9 20 5 11 1009.0 1008.7 0.0
19/01:00pm 28.0 24.3 2.2 19 12.7 SSE 11 20 6 11 1009.7 1009.4 0.0
19/12:30pm 26.9 23.2 2.1 20 12.1 ESE 11 22 6 12 1010.3 1010.0 0.0
19/12:00pm 25.7 22.9 3.0 23 11.1 SE 7 17 4 9 1010.7 1010.4 0.0
19/11:30am 23.5 19.7 1.8 24 10.2 SE 11 20 6 11 1011.1 1010.8 0.0
19/11:00am 22.6 19.3 4.6 31 8.9 SE 11 19 6 10 1011.2 1010.9 0.0
19/10:30am 20.8 17.2 4.8 35 7.8 E 13 19 7 10 1011.7 1011.4 0.0
19/10:00am 19.7 15.4 5.4 39 7.0 ESE 17 26 9 14 1011.5 1011.2 0.0
19/09:30am 17.6 12.9 5.2 44 6.0 SE 19 30 10 16 1011.9 1011.6 0.0
19/09:00am 16.4 11.6 5.4 48 5.3 SE 20 28 11 15 1012.1 1011.8 0.0
19/08:30am 15.5 10.9 5.4 51 4.8 SE 19 28 10 15 1012.4 1012.1 0.0
19/08:00am 14.3 10.4 5.4 55 4.2 SE 15 20 8 11 1012.6 1012.3 0.0
19/07:30am 13.6 9.7 5.5 58 3.8 SE 15 22 8 12 1012.4 1012.1 0.0
19/07:00am 13.0 9.5 5.4 60 3.6 SE 13 19 7 10 1012.2 1011.9 0.0
19/06:30am 13.1 9.2 5.3 59 3.6 SSE 15 22 8 12 1012.0 1011.7 0.0
19/06:00am 12.9 9.4 5.3 60 3.5 SSE 13 20 7 11 1012.0 1011.7 0.0
19/05:30am 12.8 9.2 5.2 60 3.5 SSE 13 19 7 10 1011.8 1011.5 0.0
19/05:00am 13.0 9.4 5.2 59 3.6 SE 13 24 7 13 1011.5 1011.2 0.0
19/04:30am 13.3 9.4 5.2 58 3.8 SSE 15 22 8 12 1011.8 1011.5 0.0
19/04:00am 14.0 10.5 5.4 56 4.1 SSE 13 19 7 10 1012.0 1011.7 0.0
19/03:30am 14.2 9.9 5.3 55 4.2 SE 17 26 9 14 1012.3 1012.0 0.0
19/03:00am 15.1 11.1 5.0 51 4.8 SE 15 22 8 12 1012.4 1012.1 0.0
19/02:30am 15.6 10.7 5.2 50 4.9 SE 20 35 11 19 1012.6 1012.3 0.0
19/02:00am 16.1 10.4 4.8 47 5.4 SE 24 35 13 19 1012.7 1012.4 0.0
19/01:30am 16.8 11.8 4.5 44 5.8 SE 20 28 11 15 1013.0 1012.7 0.0
19/01:00am 17.2 12.1 4.2 42 6.1 SE 20 32 11 17 1013.1 1012.8 0.0
19/12:30am 18.2 13.6 3.7 38 6.8 SE 17 26 9 14 1013.3 1013.0 0.0
19/12:00am 19.0 13.9 4.0 37 7.1 SE 20 33 11 18 1013.2 1012.9 0.0
 
Date/Time
EDT
Temp
°C
App
Temp
°C
Dew
Point
°C
Rel
Hum
%
Delta-T
°C
Wind Press
QNH
hPa
Press
MSL
hPa
Rain since
9am
mm
Dir  Spd
km/h
Gust
km/h
Spd
kts
Gust
kts
18/11:30pm 20.0 14.1 3.7 34 7.8 SE 24 39 13 21 1013.4 1013.1 0.0
18/11:00pm 20.7 15.7 4.7 35 7.8 SE 20 32 11 17 1013.2 1012.9 0.0
18/10:30pm 21.8 16.3 5.7 35 8.1 SE 24 41 13 22 1012.8 1012.5 0.0
18/10:00pm 23.3 18.2 6.1 33 8.8 SE 22 39 12 21 1012.6 1012.3 0.0
18/09:30pm 24.8 20.7 2.3 23 10.8 SSE 13 17 7 9 1011.9 1011.6 0.0
18/09:00pm 25.8 21.7 2.5 22 11.3 SSE 13 19 7 10 1011.8 1011.5 0.0
18/08:30pm 27.2 22.5 3.0 21 12.0 S 17 28 9 15 1011.6 1011.3 0.0
18/08:00pm 27.9 22.8 4.2 22 12.1 S 20 30 11 16 1011.4 1011.1 0.0
18/07:30pm 28.2 24.1 4.5 22 12.1 S 15 22 8 12 1011.0 1010.7 0.0
18/07:00pm 27.2 23.1 4.3 23 11.6 SSW 15 32 8 17 1010.9 1010.6 0.0
18/06:30pm 26.7 22.3 4.5 24 11.3 SSW 17 30 9 16 1011.1 1010.8 0.0
18/06:00pm 27.0 22.0 3.5 22 11.7 S 19 32 10 17 1011.2 1010.9 0.0
18/05:30pm 27.5 22.4 3.9 22 11.9 S 20 33 11 18 1011.2 1010.9 0.0
18/05:00pm 27.7 23.0 3.4 21 12.2 S 17 30 9 16 1011.5 1011.2 0.0
18/04:30pm 26.9 22.0 4.0 23 11.5 S 19 32 10 17 1011.6 1011.3 0.0
18/04:00pm 25.6 20.2 2.3 22 11.3 S 20 28 11 15 1012.1 1011.8 0.0
18/03:30pm 25.4 20.0 2.2 22 11.2 S 20 32 11 17 1012.4 1012.1 0.0
18/03:00pm 25.8 20.6 2.5 22 11.3 S 19 28 10 15 1012.5 1012.2 0.0
18/02:30pm 26.6 21.1 3.8 23 11.4 S 22 33 12 18 1012.7 1012.4 0.0
18/02:00pm 27.7 22.5 5.3 24 11.6 SSW 22 32 12 17 1012.8 1012.5 0.0
18/01:30pm 27.1 22.7 4.8 24 11.4 S 17 33 9 18 1012.5 1012.2 0.0
18/01:00pm 26.6 22.0 6.6 28 10.5 S 20 33 11 18 1013.2 1012.9 0.0
18/12:30pm 25.5 20.6 8.5 34 9.2 S 24 39 13 21 1013.6 1013.3 0.0
18/12:00pm 26.3 22.8 10.9 38 8.7 S 20 33 11 18 1013.4 1013.1 0.0
18/11:30am 25.3 22.2 12.2 44 7.5 SSW 20 33 11 18 1013.1 1012.8 0.0
18/11:00am 24.7 21.1 12.0 45 7.3 SSW 22 33 12 18 1012.9 1012.6 0.0
18/10:30am 24.7 20.8 12.0 45 7.3 SSW 24 37 13 20 1012.5 1012.2 0.0
18/10:00am 24.1 20.7 12.4 48 6.7 SSW 22 35 12 19 1012.1 1011.8 0.0
18/09:30am 23.8 19.8 11.8 47 6.8 S 24 35 13 19 1012.3 1012.0 0.0
18/09:00am 23.9 20.2 11.6 46 7.0 SSW 22 37 12 20 1011.7 1011.4 0.0
18/08:30am 23.8 20.8 10.8 44 7.2 S 17 26 9 14 1010.9 1010.6 -
18/08:00am 22.2 19.4 10.0 46 6.7 SSW 15 24 8 13 1010.7 1010.4 -
18/07:30am 20.1 17.5 9.4 50 5.7 SSW 13 19 7 10 1010.1 1009.8 -
18/07:00am 18.6 17.1 9.1 54 5.0 SSW 7 11 4 6 1009.5 1009.2 -
18/06:30am 18.6 16.2 8.8 53 5.1 SSW 11 15 6 8 1008.8 1008.5 -
18/06:00am 18.5 16.4 8.2 51 5.3 S 9 11 5 6 1008.5 1008.2 -
18/05:30am 19.4 17.7 8.4 49 5.7 S 7 11 4 6 1008.2 1007.8 -
18/05:00am 20.0 17.6 8.7 48 5.9 S 11 13 6 7 1007.9 1007.5 -
18/04:30am 20.7 18.2 8.4 45 6.5 S 11 17 6 9 1007.9 1007.5 -
18/04:00am 21.6 17.9 8.1 42 7.1 SSE 17 22 9 12 1007.9 1007.5 -
18/03:30am 22.3 18.1 7.3 38 7.8 S 19 28 10 15 1007.9 1007.5 -
18/03:00am 22.9 18.7 7.4 37 8.1 SSE 19 26 10 14 1008.0 1007.6 -
18/02:30am 22.8 19.5 6.6 35 8.3 SE 13 19 7 10 1007.5 1007.1 -
18/02:00am 24.1 19.7 6.4 32 9.2 SSE 19 28 10 15 1008.3 1007.9 -
18/01:30am 25.1 21.1 6.8 31 9.6 S 17 28 9 15 1008.2 1007.8 -
18/01:00am 26.1 - 6.2 28 10.4 - - - - - 1007.6 1007.2 -
18/12:30am 27.3 22.7 3.7 22 11.8 SSW 17 26 9 14 1007.4 - 0.0
18/12:00am 28.6 24.6 2.7 19 12.9 SSW 13 22 7 12 1007.1 1006.7 0.0
 
Date/Time
EDT
Temp
°C
App
Temp
°C
Dew
Point
°C
Rel
Hum
%
Delta-T
°C
Wind Press
QNH
hPa
Press
MSL
hPa
Rain since
9am
mm
Dir  Spd
km/h
Gust
km/h
Spd
kts
Gust
kts
17/11:30pm 28.9 24.7 1.4 17 13.4 SW 13 17 7 9 1007.1 1006.7 0.0
17/11:00pm 30.6 26.2 0.1 14 14.7 SSW 13 19 7 10 1006.7 1006.3 0.0
17/10:30pm 32.4 25.8 -3.1 10 16.4 SW 22 32 12 17 1006.5 1006.1 0.0
17/10:11pm 28.6 22.5 -7.3 9 15.0 WNW 17 33 9 18 1006.0 1005.6 0.0
17/10:00pm 27.9 23.1 -6.5 10 14.5 NW 11 13 6 7 1005.2 1004.8 0.0
17/09:30pm 29.2 23.9 -6.9 9 15.2 NW 13 15 7 8 1005.0 1004.6 0.0
17/09:00pm 31.4 26.1 -6.8 8 16.5 WNW 13 17 7 9 1004.6 1004.2 0.0
17/08:59pm 31.7 25.9 -8.3 7 16.8 WNW 15 17 8 9 1004.6 1004.2 0.0
17/08:30pm 36.9 30.7 -8.9 5 19.9 WNW 17 20 9 11 1004.3 1003.9 0.0
17/08:00pm 40.0 31.7 -9.6 4 22.0 WNW 28 35 15 19 1004.0 1003.6 0.0
17/07:30pm 41.0 33.5 -8.9 4 22.4 NW 24 33 13 18 1003.8 1003.4 0.0
17/07:00pm 41.7 33.1 -8.5 4 22.9 WNW 30 41 16 22 1003.7 1003.3 0.0
17/06:30pm 42.4 34.7 -11.6 3 23.6 W 24 33 13 18 1003.7 1003.3 0.0
17/06:00pm 42.9 36.4 -7.6 4 23.5 WNW 19 32 10 17 1003.9 1003.5 0.0
17/05:30pm 43.1 34.9 -7.5 4 23.6 WNW 28 61 15 33 1004.1 1003.7 0.0
17/05:29pm 42.8 34.6 -7.7 4 23.4 WNW 28 61 15 33 1004.2 1003.8 0.0
17/05:00pm 42.9 34.8 -11.3 3 23.9 WNW 26 44 14 24 1004.5 1004.1 0.0
17/04:30pm 42.7 36.2 -7.8 4 23.4 WNW 19 35 10 19 1004.8 1004.4 0.0
17/04:00pm 42.5 34.8 -11.5 3 23.7 WNW 24 39 13 21 1005.2 1004.8 0.0
17/03:30pm 42.9 35.1 -7.6 4 23.5 NW 26 41 14 22 1005.4 1005.0 0.0
17/03:01pm 42.5 34.0 -11.5 3 23.6 WNW 28 46 15 25 1005.8 1005.4 0.0
17/03:00pm 42.6 34.5 -11.5 3 23.8 WNW 26 46 14 25 1005.9 1005.5 0.0
17/02:30pm 42.2 34.0 -8.1 4 23.1 W 28 41 15 22 1006.4 1006.0 0.0
17/02:00pm 41.6 33.0 -8.5 4 22.8 NW 30 46 16 25 1006.8 1006.4 0.0
17/01:45pm 42.2 34.0 -8.1 4 23.1 WNW 28 50 15 27 1007.0 1006.6 0.0
17/01:30pm 41.1 33.2 -8.9 4 22.5 NW 26 43 14 23 1007.2 1006.8 0.0
17/01:14pm 41.5 33.6 -8.6 4 22.7 NW 26 52 14 28 1007.4 1007.0 0.0
17/01:00pm 40.6 32.3 -9.2 4 22.3 WNW 28 39 15 21 1007.6 1007.2 0.0
17/12:41pm 40.7 32.6 -6.3 5 21.9 NW 28 48 15 26 1007.8 1007.4 0.0
17/12:30pm 39.8 32.7 -4.5 6 21.1 W 24 37 13 20 1008.0 1007.6 0.0
17/12:00pm 39.7 32.6 -4.6 6 21.1 NNW 24 37 13 20 1008.5 1008.2 0.0
17/11:30am 38.4 31.8 -3.4 7 20.1 NNW 22 33 12 18 1008.9 1008.6 0.0
17/11:00am 38.1 31.3 -1.9 8 19.6 NNW 24 35 13 19 1009.1 1008.8 0.0
17/10:30am 36.9 31.0 -1.1 9 18.7 N 20 26 11 14 1009.4 1009.1 0.0
17/10:00am 34.6 29.2 1.1 12 16.9 N 19 24 10 13 1009.8 1009.5 0.0
17/09:30am 30.6 26.7 3.6 18 13.8 N 13 17 7 9 1010.0 1009.7 0.0
17/09:00am 28.1 25.2 4.4 22 12.1 N 9 11 5 6 1010.2 1009.9 0.0
17/08:30am 25.9 22.8 5.5 27 10.5 NNE 11 15 6 8 1010.3 1010.0 0.0

Other Formats:

Comma delimited format used in spreadsheet applications
http://www.bom.gov.au/fwo/IDN60801/IDN60801.94843.axf

JavaScript Object Notation format (JSON) in row-major order
http://www.bom.gov.au/fwo/IDN60801/IDN60801.94843.json